Terminal Aerodrome Forecast
Issued by NWS

Home | Current Version | Previous Version | Text Only | Print | Product List | Glossary Off
Versions: 1 2 3 4 5 6 7 8 9 10 11 12 13 14 15

797
FTUS43 KBIS 251341 AAA
TAFDIK
TAF AMD
KDIK 251341Z 2514/2612 01008KT P6SM FEW120 FEW200
     FM260500 04006KT P6SM FEW140 FEW250=

USA.gov is the U.S. government's official web portal to all federal, state and local government web resources and services.